sensor_id;sensor_type;location;lat;lon;timestamp;P1;durP1;ratioP1;P2;durP2;ratioP2
20567;SDS011;10442;49.932;11.592;2022-09-21T00:01:26;8.63;;;3.00;;
20567;SDS011;10442;49.932;11.592;2022-09-21T00:03:59;13.77;;;3.07;;
20567;SDS011;10442;49.932;11.592;2022-09-21T00:06:29;6.13;;;2.60;;
20567;SDS011;10442;49.932;11.592;2022-09-21T00:08:58;12.20;;;2.60;;
20567;SDS011;10442;49.932;11.592;2022-09-21T00:11:27;5.97;;;2.50;;
20567;SDS011;10442;49.932;11.592;2022-09-21T00:14:04;4.17;;;2.77;;
20567;SDS011;10442;49.932;11.592;2022-09-21T00:16:35;4.17;;;2.70;;
20567;SDS011;10442;49.932;11.592;2022-09-21T00:19:02;6.80;;;2.50;;
20567;SDS011;10442;49.932;11.592;2022-09-21T00:21:30;6.47;;;2.90;;
20567;SDS011;10442;49.932;11.592;2022-09-21T00:23:58;4.07;;;2.23;;
20567;SDS011;10442;49.932;11.592;2022-09-21T00:26:26;13.13;;;3.20;;
20567;SDS011;10442;49.932;11.592;2022-09-21T00:28:54;8.73;;;2.87;;
20567;SDS011;10442;49.932;11.592;2022-09-21T00:31:24;6.13;;;2.10;;
20567;SDS011;10442;49.932;11.592;2022-09-21T00:33:53;6.23;;;2.67;;
20567;SDS011;10442;49.932;11.592;2022-09-21T00:36:22;6.47;;;2.67;;
20567;SDS011;10442;49.932;11.592;2022-09-21T00:38:51;10.57;;;3.10;;
20567;SDS011;10442;49.932;11.592;2022-09-21T00:41:24;16.03;;;3.83;;
20567;SDS011;10442;49.932;11.592;2022-09-21T00:44:15;13.63;;;3.10;;
20567;SDS011;10442;49.932;11.592;2022-09-21T00:46:46;16.77;;;3.20;;
20567;SDS011;10442;49.932;11.592;2022-09-21T00:49:15;10.23;;;2.50;;
20567;SDS011;10442;49.932;11.592;2022-09-21T00:51:43;8.13;;;2.40;;
20567;SDS011;10442;49.932;11.592;2022-09-21T00:54:13;9.17;;;2.63;;
20567;SDS011;10442;49.932;11.592;2022-09-21T00:56:53;2.10;;;1.87;;
20567;SDS011;10442;49.932;11.592;2022-09-21T00:59:22;6.67;;;2.20;;
20567;SDS011;10442;49.932;11.592;2022-09-21T01:01:56;6.90;;;2.10;;
20567;SDS011;10442;49.932;11.592;2022-09-21T01:04:25;11.23;;;2.93;;
20567;SDS011;10442;49.932;11.592;2022-09-21T01:06:55;11.90;;;3.03;;
20567;SDS011;10442;49.932;11.592;2022-09-21T01:09:24;7.87;;;2.27;;
20567;SDS011;10442;49.932;11.592;2022-09-21T01:14:43;11.57;;;2.73;;
20567;SDS011;10442;49.932;11.592;2022-09-21T01:26:03;10.27;;;2.57;;
20567;SDS011;10442;49.932;11.592;2022-09-21T01:29:11;13.27;;;3.17;;
20567;SDS011;10442;49.932;11.592;2022-09-21T01:32:06;14.30;;;3.33;;
20567;SDS011;10442;49.932;11.592;2022-09-21T01:37:22;19.67;;;3.63;;
20567;SDS011;10442;49.932;11.592;2022-09-21T01:39:53;18.97;;;3.37;;
20567;SDS011;10442;49.932;11.592;2022-09-21T01:42:25;20.27;;;3.03;;
20567;SDS011;10442;49.932;11.592;2022-09-21T01:44:55;18.87;;;3.27;;
20567;SDS011;10442;49.932;11.592;2022-09-21T01:47:26;28.23;;;4.07;;
20567;SDS011;10442;49.932;11.592;2022-09-21T01:49:58;17.17;;;3.23;;
20567;SDS011;10442;49.932;11.592;2022-09-21T01:55:09;6.37;;;2.30;;
20567;SDS011;10442;49.932;11.592;2022-09-21T02:00:51;18.20;;;3.60;;
20567;SDS011;10442;49.932;11.592;2022-09-21T02:03:26;8.57;;;2.30;;
20567;SDS011;10442;49.932;11.592;2022-09-21T02:05:58;4.87;;;2.10;;
20567;SDS011;10442;49.932;11.592;2022-09-21T02:08:31;3.43;;;2.10;;
20567;SDS011;10442;49.932;11.592;2022-09-21T02:11:00;5.57;;;1.90;;
20567;SDS011;10442;49.932;11.592;2022-09-21T02:13:30;9.87;;;2.20;;
20567;SDS011;10442;49.932;11.592;2022-09-21T02:18:38;11.57;;;2.90;;
20567;SDS011;10442;49.932;11.592;2022-09-21T02:24:34;23.13;;;3.70;;
20567;SDS011;10442;49.932;11.592;2022-09-21T02:30:14;20.03;;;3.27;;
20567;SDS011;10442;49.932;11.592;2022-09-21T02:35:25;10.73;;;3.17;;
20567;SDS011;10442;49.932;11.592;2022-09-21T02:40:59;19.53;;;3.03;;
20567;SDS011;10442;49.932;11.592;2022-09-21T02:43:33;16.40;;;3.00;;
20567;SDS011;10442;49.932;11.592;2022-09-21T02:46:12;19.43;;;3.40;;
20567;SDS011;10442;49.932;11.592;2022-09-21T02:48:47;12.03;;;3.07;;
20567;SDS011;10442;49.932;11.592;2022-09-21T02:51:19;18.57;;;3.23;;
20567;SDS011;10442;49.932;11.592;2022-09-21T02:53:51;4.70;;;2.10;;
20567;SDS011;10442;49.932;11.592;2022-09-21T02:56:20;24.23;;;3.57;;
20567;SDS011;10442;49.932;11.592;2022-09-21T02:58:49;34.50;;;3.63;;
20567;SDS011;10442;49.932;11.592;2022-09-21T03:01:20;18.30;;;3.13;;
20567;SDS011;10442;49.932;11.592;2022-09-21T03:03:49;16.50;;;2.97;;
20567;SDS011;10442;49.932;11.592;2022-09-21T03:06:17;19.30;;;2.93;;
20567;SDS011;10442;49.932;11.592;2022-09-21T03:08:44;15.00;;;2.93;;
20567;SDS011;10442;49.932;11.592;2022-09-21T03:11:15;22.73;;;3.23;;
20567;SDS011;10442;49.932;11.592;2022-09-21T03:13:43;22.47;;;3.30;;
20567;SDS011;10442;49.932;11.592;2022-09-21T03:16:11;11.97;;;2.60;;
20567;SDS011;10442;49.932;11.592;2022-09-21T03:18:39;13.80;;;2.60;;
20567;SDS011;10442;49.932;11.592;2022-09-21T03:21:07;10.97;;;2.67;;
20567;SDS011;10442;49.932;11.592;2022-09-21T03:23:35;16.27;;;2.77;;
20567;SDS011;10442;49.932;11.592;2022-09-21T03:26:03;14.53;;;2.87;;
20567;SDS011;10442;49.932;11.592;2022-09-21T03:28:30;18.20;;;3.23;;
20567;SDS011;10442;49.932;11.592;2022-09-21T03:30:58;19.30;;;2.57;;
20567;SDS011;10442;49.932;11.592;2022-09-21T03:33:25;18.10;;;2.67;;
20567;SDS011;10442;49.932;11.592;2022-09-21T03:35:53;12.03;;;2.67;;
20567;SDS011;10442;49.932;11.592;2022-09-21T03:38:20;13.33;;;2.57;;
20567;SDS011;10442;49.932;11.592;2022-09-21T03:40:48;11.87;;;2.77;;
20567;SDS011;10442;49.932;11.592;2022-09-21T03:43:16;13.97;;;2.43;;
20567;SDS011;10442;49.932;11.592;2022-09-21T03:45:44;18.53;;;3.30;;
20567;SDS011;10442;49.932;11.592;2022-09-21T03:48:12;9.37;;;2.00;;
20567;SDS011;10442;49.932;11.592;2022-09-21T03:50:41;16.00;;;3.00;;
20567;SDS011;10442;49.932;11.592;2022-09-21T03:53:09;8.10;;;1.73;;
20567;SDS011;10442;49.932;11.592;2022-09-21T03:55:37;2.00;;;1.80;;
20567;SDS011;10442;49.932;11.592;2022-09-21T03:58:05;7.67;;;2.13;;
20567;SDS011;10442;49.932;11.592;2022-09-21T04:00:33;12.37;;;2.23;;
20567;SDS011;10442;49.932;11.592;2022-09-21T04:03:00;7.63;;;2.30;;
20567;SDS011;10442;49.932;11.592;2022-09-21T04:05:28;8.27;;;2.60;;
20567;SDS011;10442;49.932;11.592;2022-09-21T04:07:56;3.33;;;1.63;;
20567;SDS011;10442;49.932;11.592;2022-09-21T04:10:24;6.33;;;2.00;;
20567;SDS011;10442;49.932;11.592;2022-09-21T04:12:58;10.23;;;2.17;;
20567;SDS011;10442;49.932;11.592;2022-09-21T04:15:27;9.23;;;2.07;;
20567;SDS011;10442;49.932;11.592;2022-09-21T04:17:55;14.87;;;2.70;;
20567;SDS011;10442;49.932;11.592;2022-09-21T04:20:23;5.83;;;2.17;;
20567;SDS011;10442;49.932;11.592;2022-09-21T04:22:51;3.73;;;2.07;;
20567;SDS011;10442;49.932;11.592;2022-09-21T04:25:18;8.33;;;2.20;;
20567;SDS011;10442;49.932;11.592;2022-09-21T04:27:46;6.93;;;2.17;;
20567;SDS011;10442;49.932;11.592;2022-09-21T04:30:14;4.97;;;1.73;;
20567;SDS011;10442;49.932;11.592;2022-09-21T04:32:42;9.00;;;2.73;;
20567;SDS011;10442;49.932;11.592;2022-09-21T04:35:10;15.20;;;2.60;;
20567;SDS011;10442;49.932;11.592;2022-09-21T04:37:37;2.80;;;1.77;;
20567;SDS011;10442;49.932;11.592;2022-09-21T04:40:05;8.93;;;2.23;;
20567;SDS011;10442;49.932;11.592;2022-09-21T04:42:34;6.47;;;1.77;;
20567;SDS011;10442;49.932;11.592;2022-09-21T04:45:01;12.47;;;2.50;;
20567;SDS011;10442;49.932;11.592;2022-09-21T04:47:29;2.83;;;2.10;;
20567;SDS011;10442;49.932;11.592;2022-09-21T04:49:57;5.10;;;2.10;;
20567;SDS011;10442;49.932;11.592;2022-09-21T04:52:25;9.30;;;2.27;;
20567;SDS011;10442;49.932;11.592;2022-09-21T04:54:52;7.67;;;2.37;;
20567;SDS011;10442;49.932;11.592;2022-09-21T04:57:20;6.27;;;1.93;;
20567;SDS011;10442;49.932;11.592;2022-09-21T04:59:47;2.80;;;2.43;;
20567;SDS011;10442;49.932;11.592;2022-09-21T05:02:15;6.00;;;2.37;;
20567;SDS011;10442;49.932;11.592;2022-09-21T05:04:42;6.10;;;2.30;;
20567;SDS011;10442;49.932;11.592;2022-09-21T05:07:16;5.30;;;1.87;;
20567;SDS011;10442;49.932;11.592;2022-09-21T05:09:44;8.50;;;1.73;;
20567;SDS011;10442;49.932;11.592;2022-09-21T05:12:32;4.77;;;2.17;;
20567;SDS011;10442;49.932;11.592;2022-09-21T05:15:05;5.77;;;2.23;;
20567;SDS011;10442;49.932;11.592;2022-09-21T05:17:34;3.97;;;1.87;;
20567;SDS011;10442;49.932;11.592;2022-09-21T05:20:02;3.30;;;1.70;;
20567;SDS011;10442;49.932;11.592;2022-09-21T05:22:30;4.57;;;1.50;;
20567;SDS011;10442;49.932;11.592;2022-09-21T05:24:57;4.47;;;2.03;;
20567;SDS011;10442;49.932;11.592;2022-09-21T05:27:25;2.33;;;2.13;;
20567;SDS011;10442;49.932;11.592;2022-09-21T05:29:52;9.13;;;2.27;;
20567;SDS011;10442;49.932;11.592;2022-09-21T05:32:23;5.70;;;1.93;;
20567;SDS011;10442;49.932;11.592;2022-09-21T05:35:09;1.93;;;1.37;;
20567;SDS011;10442;49.932;11.592;2022-09-21T05:40:39;7.23;;;1.70;;
20567;SDS011;10442;49.932;11.592;2022-09-21T05:43:07;3.00;;;1.50;;
20567;SDS011;10442;49.932;11.592;2022-09-21T05:45:36;6.83;;;1.63;;
20567;SDS011;10442;49.932;11.592;2022-09-21T05:48:15;3.43;;;1.47;;
20567;SDS011;10442;49.932;11.592;2022-09-21T05:50:55;1.40;;;1.30;;
20567;SDS011;10442;49.932;11.592;2022-09-21T06:02:10;3.57;;;1.63;;
20567;SDS011;10442;49.932;11.592;2022-09-21T06:04:46;3.20;;;1.77;;
20567;SDS011;10442;49.932;11.592;2022-09-21T06:07:15;4.80;;;1.30;;
20567;SDS011;10442;49.932;11.592;2022-09-21T06:09:42;7.30;;;1.67;;
20567;SDS011;10442;49.932;11.592;2022-09-21T06:12:10;2.20;;;1.10;;
20567;SDS011;10442;49.932;11.592;2022-09-21T06:14:37;5.00;;;1.70;;
20567;SDS011;10442;49.932;11.592;2022-09-21T06:17:05;3.97;;;2.10;;
20567;SDS011;10442;49.932;11.592;2022-09-21T06:19:32;2.50;;;2.23;;
20567;SDS011;10442;49.932;11.592;2022-09-21T06:22:00;4.27;;;2.80;;
20567;SDS011;10442;49.932;11.592;2022-09-21T06:24:27;5.63;;;2.53;;
20567;SDS011;10442;49.932;11.592;2022-09-21T06:26:55;10.67;;;3.53;;
20567;SDS011;10442;49.932;11.592;2022-09-21T06:29:22;5.00;;;3.07;;
20567;SDS011;10442;49.932;11.592;2022-09-21T06:31:50;4.27;;;2.80;;
20567;SDS011;10442;49.932;11.592;2022-09-21T06:34:17;4.07;;;2.93;;
20567;SDS011;10442;49.932;11.592;2022-09-21T06:36:44;4.30;;;3.67;;
20567;SDS011;10442;49.932;11.592;2022-09-21T06:39:12;6.00;;;3.37;;
20567;SDS011;10442;49.932;11.592;2022-09-21T06:41:39;10.03;;;3.50;;
20567;SDS011;10442;49.932;11.592;2022-09-21T06:44:09;8.03;;;3.40;;
20567;SDS011;10442;49.932;11.592;2022-09-21T06:46:37;4.73;;;3.00;;
20567;SDS011;10442;49.932;11.592;2022-09-21T06:49:04;9.03;;;4.73;;
20567;SDS011;10442;49.932;11.592;2022-09-21T06:51:31;9.67;;;4.57;;
20567;SDS011;10442;49.932;11.592;2022-09-21T06:53:59;6.27;;;3.70;;
20567;SDS011;10442;49.932;11.592;2022-09-21T06:56:27;4.30;;;3.30;;
20567;SDS011;10442;49.932;11.592;2022-09-21T06:58:54;5.43;;;3.40;;
20567;SDS011;10442;49.932;11.592;2022-09-21T07:01:22;8.47;;;4.30;;
20567;SDS011;10442;49.932;11.592;2022-09-21T07:03:51;4.30;;;3.90;;
20567;SDS011;10442;49.932;11.592;2022-09-21T07:06:19;6.90;;;4.40;;
20567;SDS011;10442;49.932;11.592;2022-09-21T07:08:46;5.10;;;4.17;;
20567;SDS011;10442;49.932;11.592;2022-09-21T07:11:36;9.40;;;4.57;;
20567;SDS011;10442;49.932;11.592;2022-09-21T07:14:07;5.63;;;4.40;;
20567;SDS011;10442;49.932;11.592;2022-09-21T07:16:35;5.40;;;4.90;;
20567;SDS011;10442;49.932;11.592;2022-09-21T07:19:03;42.30;;;29.43;;
20567;SDS011;10442;49.932;11.592;2022-09-21T07:21:37;19.10;;;12.40;;
20567;SDS011;10442;49.932;11.592;2022-09-21T07:24:05;18.33;;;6.03;;
20567;SDS011;10442;49.932;11.592;2022-09-21T07:26:37;13.47;;;4.93;;
20567;SDS011;10442;49.932;11.592;2022-09-21T07:29:05;6.70;;;4.40;;
20567;SDS011;10442;49.932;11.592;2022-09-21T07:31:33;7.53;;;4.30;;
20567;SDS011;10442;49.932;11.592;2022-09-21T07:34:01;24.00;;;5.30;;
20567;SDS011;10442;49.932;11.592;2022-09-21T07:36:29;14.67;;;4.60;;
20567;SDS011;10442;49.932;11.592;2022-09-21T07:38:56;13.60;;;4.57;;
20567;SDS011;10442;49.932;11.592;2022-09-21T07:41:24;4.80;;;4.40;;
20567;SDS011;10442;49.932;11.592;2022-09-21T07:43:52;10.50;;;4.53;;
20567;SDS011;10442;49.932;11.592;2022-09-21T07:46:19;9.83;;;4.53;;
20567;SDS011;10442;49.932;11.592;2022-09-21T07:48:46;5.40;;;4.17;;
20567;SDS011;10442;49.932;11.592;2022-09-21T07:51:14;6.70;;;4.70;;
20567;SDS011;10442;49.932;11.592;2022-09-21T07:53:42;7.60;;;5.67;;
20567;SDS011;10442;49.932;11.592;2022-09-21T07:56:11;7.90;;;6.33;;
20567;SDS011;10442;49.932;11.592;2022-09-21T07:58:41;7.93;;;5.80;;
20567;SDS011;10442;49.932;11.592;2022-09-21T08:01:28;8.37;;;4.93;;
20567;SDS011;10442;49.932;11.592;2022-09-21T08:03:56;4.83;;;4.37;;
20567;SDS011;10442;49.932;11.592;2022-09-21T08:06:26;6.57;;;5.00;;
20567;SDS011;10442;49.932;11.592;2022-09-21T08:08:56;7.17;;;5.40;;
20567;SDS011;10442;49.932;11.592;2022-09-21T08:11:24;5.00;;;4.60;;
20567;SDS011;10442;49.932;11.592;2022-09-21T08:13:54;5.87;;;5.27;;
20567;SDS011;10442;49.932;11.592;2022-09-21T08:16:27;5.57;;;5.07;;
20567;SDS011;10442;49.932;11.592;2022-09-21T08:18:55;6.22;;;5.68;;
20567;SDS011;10442;49.932;11.592;2022-09-21T08:21:23;5.55;;;5.05;;
20567;SDS011;10442;49.932;11.592;2022-09-21T08:23:51;5.15;;;4.65;;
20567;SDS011;10442;49.932;11.592;2022-09-21T08:26:19;5.90;;;5.40;;
20567;SDS011;10442;49.932;11.592;2022-09-21T08:28:47;7.22;;;6.63;;
20567;SDS011;10442;49.932;11.592;2022-09-21T08:31:18;6.50;;;5.80;;
20567;SDS011;10442;49.932;11.592;2022-09-21T08:33:47;6.22;;;5.65;;
20567;SDS011;10442;49.932;11.592;2022-09-21T08:36:16;5.93;;;5.43;;
20567;SDS011;10442;49.932;11.592;2022-09-21T08:38:44;15.02;;;13.52;;
20567;SDS011;10442;49.932;11.592;2022-09-21T08:41:17;5.65;;;5.15;;
20567;SDS011;10442;49.932;11.592;2022-09-21T08:43:49;5.75;;;5.22;;
20567;SDS011;10442;49.932;11.592;2022-09-21T08:46:22;5.20;;;4.80;;
20567;SDS011;10442;49.932;11.592;2022-09-21T08:48:57;5.55;;;5.07;;
20567;SDS011;10442;49.932;11.592;2022-09-21T08:51:31;9.38;;;4.85;;
20567;SDS011;10442;49.932;11.592;2022-09-21T08:54:05;5.25;;;4.53;;
20567;SDS011;10442;49.932;11.592;2022-09-21T08:56:40;4.72;;;3.55;;
20567;SDS011;10442;49.932;11.592;2022-09-21T08:59:28;4.22;;;3.92;;
20567;SDS011;10442;49.932;11.592;2022-09-21T09:02:06;4.20;;;3.90;;
20567;SDS011;10442;49.932;11.592;2022-09-21T09:12:56;3.60;;;3.40;;
20567;SDS011;10442;49.932;11.592;2022-09-21T09:15:47;4.05;;;3.70;;
20567;SDS011;10442;49.932;11.592;2022-09-21T09:21:15;4.22;;;3.92;;
20567;SDS011;10442;49.932;11.592;2022-09-21T09:24:10;3.65;;;3.42;;
20567;SDS011;10442;49.932;11.592;2022-09-21T09:27:01;4.38;;;4.07;;
20567;SDS011;10442;49.932;11.592;2022-09-21T09:32:09;5.75;;;4.43;;
20567;SDS011;10442;49.932;11.592;2022-09-21T09:34:41;4.03;;;3.72;;
20567;SDS011;10442;49.932;11.592;2022-09-21T09:37:34;4.57;;;3.53;;
20567;SDS011;10442;49.932;11.592;2022-09-21T09:40:06;3.95;;;3.65;;
20567;SDS011;10442;49.932;11.592;2022-09-21T09:50:35;4.50;;;4.10;;
20567;SDS011;10442;49.932;11.592;2022-09-21T09:53:06;4.60;;;4.30;;
20567;SDS011;10442;49.932;11.592;2022-09-21T09:55:39;5.05;;;4.63;;
20567;SDS011;10442;49.932;11.592;2022-09-21T09:58:14;6.15;;;5.55;;
20567;SDS011;10442;49.932;11.592;2022-09-21T10:00:44;4.70;;;4.30;;
20567;SDS011;10442;49.932;11.592;2022-09-21T10:03:16;8.88;;;5.80;;
20567;SDS011;10442;49.932;11.592;2022-09-21T10:05:49;6.80;;;6.10;;
20567;SDS011;10442;49.932;11.592;2022-09-21T10:11:08;5.88;;;5.40;;
20567;SDS011;10442;49.932;11.592;2022-09-21T10:13:42;5.25;;;4.78;;
20567;SDS011;10442;49.932;11.592;2022-09-21T10:16:13;9.40;;;8.50;;
20567;SDS011;10442;49.932;11.592;2022-09-21T10:21:23;5.88;;;5.45;;
20567;SDS011;10442;49.932;11.592;2022-09-21T10:23:51;6.25;;;5.75;;
20567;SDS011;10442;49.932;11.592;2022-09-21T10:26:23;5.78;;;5.30;;
20567;SDS011;10442;49.932;11.592;2022-09-21T10:34:31;6.03;;;5.47;;
20567;SDS011;10442;49.932;11.592;2022-09-21T10:37:01;4.70;;;4.30;;
20567;SDS011;10442;49.932;11.592;2022-09-21T10:39:50;8.45;;;6.15;;
20567;SDS011;10442;49.932;11.592;2022-09-21T10:42:18;4.65;;;4.25;;
20567;SDS011;10442;49.932;11.592;2022-09-21T10:44:49;3.92;;;3.53;;
20567;SDS011;10442;49.932;11.592;2022-09-21T10:47:23;5.88;;;3.25;;
20567;SDS011;10442;49.932;11.592;2022-09-21T10:55:41;5.55;;;5.00;;
20567;SDS011;10442;49.932;11.592;2022-09-21T10:58:33;4.72;;;3.60;;
20567;SDS011;10442;49.932;11.592;2022-09-21T11:01:11;3.97;;;3.67;;
20567;SDS011;10442;49.932;11.592;2022-09-21T11:03:53;3.45;;;3.15;;
20567;SDS011;10442;49.932;11.592;2022-09-21T11:06:28;3.42;;;3.13;;
20567;SDS011;10442;49.932;11.592;2022-09-21T11:08:58;3.08;;;2.78;;
20567;SDS011;10442;49.932;11.592;2022-09-21T11:11:34;3.88;;;2.88;;
20567;SDS011;10442;49.932;11.592;2022-09-21T11:14:26;3.33;;;2.90;;
20567;SDS011;10442;49.932;11.592;2022-09-21T11:17:19;3.20;;;2.83;;
20567;SDS011;10442;49.932;11.592;2022-09-21T11:19:51;3.28;;;2.97;;
20567;SDS011;10442;49.932;11.592;2022-09-21T11:22:26;3.10;;;2.90;;
20567;SDS011;10442;49.932;11.592;2022-09-21T11:25:07;2.70;;;2.28;;
20567;SDS011;10442;49.932;11.592;2022-09-21T11:28:08;4.50;;;4.10;;
20567;SDS011;10442;49.932;11.592;2022-09-21T11:30:52;4.40;;;4.10;;
20567;SDS011;10442;49.932;11.592;2022-09-21T11:36:21;5.18;;;2.55;;
20567;SDS011;10442;49.932;11.592;2022-09-21T11:39:03;3.83;;;3.05;;
20567;SDS011;10442;49.932;11.592;2022-09-21T11:44:47;2.47;;;2.22;;
20567;SDS011;10442;49.932;11.592;2022-09-21T11:50:19;3.42;;;2.20;;
20567;SDS011;10442;49.932;11.592;2022-09-21T11:56:10;2.05;;;1.95;;
20567;SDS011;10442;49.932;11.592;2022-09-21T11:59:12;2.08;;;1.88;;
20567;SDS011;10442;49.932;11.592;2022-09-21T12:02:16;2.38;;;2.17;;
20567;SDS011;10442;49.932;11.592;2022-09-21T12:15:54;5.00;;;1.75;;
20567;SDS011;10442;49.932;11.592;2022-09-21T12:18:45;5.65;;;2.47;;
20567;SDS011;10442;49.932;11.592;2022-09-21T12:24:20;2.55;;;1.50;;
20567;SDS011;10442;49.932;11.592;2022-09-21T12:27:05;1.85;;;1.33;;
20567;SDS011;10442;49.932;11.592;2022-09-21T12:29:44;1.90;;;1.45;;
20567;SDS011;10442;49.932;11.592;2022-09-21T12:35:05;1.75;;;1.48;;
20567;SDS011;10442;49.932;11.592;2022-09-21T12:37:43;1.55;;;1.45;;
20567;SDS011;10442;49.932;11.592;2022-09-21T12:40:27;2.15;;;1.80;;
20567;SDS011;10442;49.932;11.592;2022-09-21T12:46:14;3.33;;;2.22;;
20567;SDS011;10442;49.932;11.592;2022-09-21T12:48:43;16.20;;;11.30;;
20567;SDS011;10442;49.932;11.592;2022-09-21T12:53:49;1.30;;;1.20;;
20567;SDS011;10442;49.932;11.592;2022-09-21T12:56:33;2.92;;;1.75;;
20567;SDS011;10442;49.932;11.592;2022-09-21T13:01:44;2.15;;;1.33;;
20567;SDS011;10442;49.932;11.592;2022-09-21T13:07:31;4.35;;;1.42;;
20567;SDS011;10442;49.932;11.592;2022-09-21T13:13:23;2.55;;;1.58;;
20567;SDS011;10442;49.932;11.592;2022-09-21T13:15:57;1.73;;;1.63;;
20567;SDS011;10442;49.932;11.592;2022-09-21T13:18:26;1.10;;;1.00;;
20567;SDS011;10442;49.932;11.592;2022-09-21T13:21:18;0.85;;;0.85;;
20567;SDS011;10442;49.932;11.592;2022-09-21T13:23:50;2.10;;;1.67;;
20567;SDS011;10442;49.932;11.592;2022-09-21T13:26:32;3.45;;;2.47;;
20567;SDS011;10442;49.932;11.592;2022-09-21T13:29:04;1.20;;;1.08;;
20567;SDS011;10442;49.932;11.592;2022-09-21T13:31:56;1.00;;;1.00;;
20567;SDS011;10442;49.932;11.592;2022-09-21T13:34:40;5.63;;;1.48;;
20567;SDS011;10442;49.932;11.592;2022-09-21T13:47:41;1.90;;;0.70;;
20567;SDS011;10442;49.932;11.592;2022-09-21T13:53:07;0.75;;;0.75;;
20567;SDS011;10442;49.932;11.592;2022-09-21T13:55:49;0.95;;;0.73;;
20567;SDS011;10442;49.932;11.592;2022-09-21T13:58:38;1.05;;;0.93;;
20567;SDS011;10442;49.932;11.592;2022-09-21T14:01:12;2.78;;;1.63;;
20567;SDS011;10442;49.932;11.592;2022-09-21T14:04:16;1.45;;;1.20;;
20567;SDS011;10442;49.932;11.592;2022-09-21T14:06:51;4.10;;;2.97;;
20567;SDS011;10442;49.932;11.592;2022-09-21T14:09:23;2.17;;;1.20;;
20567;SDS011;10442;49.932;11.592;2022-09-21T14:11:58;3.22;;;1.35;;
20567;SDS011;10442;49.932;11.592;2022-09-21T14:14:30;4.75;;;1.70;;
20567;SDS011;10442;49.932;11.592;2022-09-21T14:17:32;1.65;;;1.33;;
20567;SDS011;10442;49.932;11.592;2022-09-21T14:20:25;2.60;;;1.20;;
20567;SDS011;10442;49.932;11.592;2022-09-21T14:23:36;1.80;;;1.00;;
20567;SDS011;10442;49.932;11.592;2022-09-21T14:25:56;1.20;;;0.95;;
20567;SDS011;10442;49.932;11.592;2022-09-21T14:28:31;3.05;;;1.10;;
20567;SDS011;10442;49.932;11.592;2022-09-21T14:31:25;5.90;;;1.58;;
20567;SDS011;10442;49.932;11.592;2022-09-21T14:33:58;1.00;;;0.90;;
20567;SDS011;10442;49.932;11.592;2022-09-21T14:36:34;1.50;;;1.30;;
20567;SDS011;10442;49.932;11.592;2022-09-21T14:39:15;1.50;;;1.30;;
20567;SDS011;10442;49.932;11.592;2022-09-21T14:41:52;1.50;;;1.30;;
20567;SDS011;10442;49.932;11.592;2022-09-21T14:44:23;1.55;;;0.82;;
20567;SDS011;10442;49.932;11.592;2022-09-21T14:47:14;1.77;;;0.90;;
20567;SDS011;10442;49.932;11.592;2022-09-21T14:50:12;4.45;;;1.20;;
20567;SDS011;10442;49.932;11.592;2022-09-21T14:53:02;1.70;;;1.27;;
20567;SDS011;10442;49.932;11.592;2022-09-21T14:59:24;2.70;;;1.30;;
20567;SDS011;10442;49.932;11.592;2022-09-21T15:02:23;1.33;;;1.23;;
20567;SDS011;10442;49.932;11.592;2022-09-21T15:08:04;7.38;;;1.38;;
20567;SDS011;10442;49.932;11.592;2022-09-21T15:16:40;2.72;;;1.60;;
20567;SDS011;10442;49.932;11.592;2022-09-21T15:21:43;4.35;;;1.50;;
20567;SDS011;10442;49.932;11.592;2022-09-21T15:24:17;2.08;;;1.38;;
20567;SDS011;10442;49.932;11.592;2022-09-21T15:27:16;1.45;;;1.00;;
20567;SDS011;10442;49.932;11.592;2022-09-21T15:29:44;1.67;;;1.13;;
20567;SDS011;10442;49.932;11.592;2022-09-21T15:32:21;2.03;;;1.55;;
20567;SDS011;10442;49.932;11.592;2022-09-21T15:34:57;1.25;;;1.08;;
20567;SDS011;10442;49.932;11.592;2022-09-21T15:37:33;2.63;;;1.42;;
20567;SDS011;10442;49.932;11.592;2022-09-21T15:40:04;1.33;;;0.95;;
20567;SDS011;10442;49.932;11.592;2022-09-21T15:42:37;1.42;;;1.10;;
20567;SDS011;10442;49.932;11.592;2022-09-21T15:45:29;1.08;;;1.08;;
20567;SDS011;10442;49.932;11.592;2022-09-21T15:48:00;1.38;;;1.23;;
20567;SDS011;10442;49.932;11.592;2022-09-21T15:50:28;1.40;;;1.20;;
20567;SDS011;10442;49.932;11.592;2022-09-21T15:52:59;1.05;;;0.90;;
20567;SDS011;10442;49.932;11.592;2022-09-21T15:55:30;2.00;;;1.48;;
20567;SDS011;10442;49.932;11.592;2022-09-21T15:57:59;2.85;;;1.13;;
20567;SDS011;10442;49.932;11.592;2022-09-21T16:00:30;1.27;;;1.10;;
20567;SDS011;10442;49.932;11.592;2022-09-21T16:03:06;3.10;;;1.30;;
20567;SDS011;10442;49.932;11.592;2022-09-21T16:05:50;1.83;;;1.17;;
20567;SDS011;10442;49.932;11.592;2022-09-21T16:08:40;1.05;;;1.05;;
20567;SDS011;10442;49.932;11.592;2022-09-21T16:13:59;3.72;;;1.63;;
20567;SDS011;10442;49.932;11.592;2022-09-21T16:22:29;1.25;;;1.00;;
20567;SDS011;10442;49.932;11.592;2022-09-21T16:27:52;2.08;;;1.02;;
20567;SDS011;10442;49.932;11.592;2022-09-21T16:38:48;1.48;;;1.25;;
20567;SDS011;10442;49.932;11.592;2022-09-21T16:41:16;4.50;;;1.35;;
20567;SDS011;10442;49.932;11.592;2022-09-21T16:43:45;5.20;;;1.55;;
20567;SDS011;10442;49.932;11.592;2022-09-21T16:46:12;1.38;;;1.25;;
20567;SDS011;10442;49.932;11.592;2022-09-21T16:48:40;0.90;;;0.90;;
20567;SDS011;10442;49.932;11.592;2022-09-21T16:51:09;4.90;;;1.30;;
20567;SDS011;10442;49.932;11.592;2022-09-21T16:53:38;1.95;;;1.23;;
20567;SDS011;10442;49.932;11.592;2022-09-21T16:56:11;3.03;;;1.42;;
20567;SDS011;10442;49.932;11.592;2022-09-21T16:58:41;2.28;;;1.25;;
20567;SDS011;10442;49.932;11.592;2022-09-21T17:01:10;1.67;;;1.23;;
20567;SDS011;10442;49.932;11.592;2022-09-21T17:03:41;1.92;;;1.13;;
20567;SDS011;10442;49.932;11.592;2022-09-21T17:06:11;1.25;;;1.15;;
20567;SDS011;10442;49.932;11.592;2022-09-21T17:08:44;2.83;;;1.30;;
20567;SDS011;10442;49.932;11.592;2022-09-21T17:11:15;1.63;;;1.42;;
20567;SDS011;10442;49.932;11.592;2022-09-21T17:13:46;1.65;;;1.35;;
20567;SDS011;10442;49.932;11.592;2022-09-21T17:16:15;1.65;;;0.98;;
20567;SDS011;10442;49.932;11.592;2022-09-21T17:18:45;1.40;;;1.30;;
20567;SDS011;10442;49.932;11.592;2022-09-21T17:21:14;1.20;;;1.10;;
20567;SDS011;10442;49.932;11.592;2022-09-21T17:23:42;1.52;;;1.42;;
20567;SDS011;10442;49.932;11.592;2022-09-21T17:26:12;1.80;;;1.20;;
20567;SDS011;10442;49.932;11.592;2022-09-21T17:28:44;2.05;;;1.55;;
20567;SDS011;10442;49.932;11.592;2022-09-21T17:31:12;2.65;;;1.67;;
20567;SDS011;10442;49.932;11.592;2022-09-21T17:33:43;2.00;;;1.38;;
20567;SDS011;10442;49.932;11.592;2022-09-21T17:36:16;5.00;;;1.58;;
20567;SDS011;10442;49.932;11.592;2022-09-21T17:38:44;3.17;;;2.03;;
20567;SDS011;10442;49.932;11.592;2022-09-21T17:44:06;2.78;;;1.77;;
20567;SDS011;10442;49.932;11.592;2022-09-21T17:46:45;2.15;;;1.83;;
20567;SDS011;10442;49.932;11.592;2022-09-21T17:49:20;3.20;;;1.95;;
20567;SDS011;10442;49.932;11.592;2022-09-21T17:51:48;2.13;;;1.92;;
20567;SDS011;10442;49.932;11.592;2022-09-21T17:54:34;2.00;;;1.73;;
20567;SDS011;10442;49.932;11.592;2022-09-21T17:57:06;1.88;;;1.45;;
20567;SDS011;10442;49.932;11.592;2022-09-21T18:00:02;2.05;;;1.90;;
20567;SDS011;10442;49.932;11.592;2022-09-21T18:02:37;3.70;;;1.33;;
20567;SDS011;10442;49.932;11.592;2022-09-21T18:05:12;1.83;;;1.48;;
20567;SDS011;10442;49.932;11.592;2022-09-21T18:07:44;2.20;;;1.50;;